Startpagina
METAR-TAF:

METAR-TAF

Vliegvelden :

Luchthaven Port Moresby

Port Moresby, Papoea-Nieuw-Guinea

breedte: 09-26S, lengte: 147-13E, hoogte: 38 m

Actueel weer

Dit bericht is 1 uur en het 54 minuten geleden gemaakt, om 20:00 UTC
Wind 3 kt uit variabele richting
Temperatuur
Druk 1009 hPa
Gebroken wolken op 900 ft
Geheel bewolkt op 1500 ft
lichte regen, motregen

METAR: AYPY 162000Z VRB03KT 5000M -RADZ BKN009 OVC015 25/T Q1009 RMK:LOW CLD ASSW RADZ IN AREA

Tijdstip: 07:54 (21:54 UTC)

Verwachting

Dit bericht is 5 uur en het 53 minuten geleden gemaakt, om 16:01 UTC
Verwachting geldig van 16 om 18 UTC tot 17 om 18 UTC
Wind kt uit het noorden
Zicht 10 km of meer
Verspreide wolken op 1500 ft
Gebroken wolken op 3000 ft
Van 17 om 0001 UTC
Wind 7 kt uit het zuiden
Zicht: 6000 m
Verspreide wolken op 1800 ft
Gebroken wolken op 3500 ft
Gebroken wolken op 800 ft

TAF: AYPY 161601Z 1618/1718 00000KT 9999 -R ADZ Z SCT015 BKN030 FM170001 17007KT 9999 SCT018 BKN035 INTER 1618/1624 6000 +R ADZ Z BKN008

Waarnemingen en weersverwachtingen van meer dan 4000 vliegvelden (METAR en TAF).

De beschikbare stations zijn de gele en rode punten op de kaart.

Ga met uw muis naar het station om de naam te zien.

Klik dan om waarnemingen en weersverwachtingen te zien.

kaart wijzigen: klik op de groene knoppen met een zwart kruis om in te zoomen, op de groene knop met een streepje om uit te zoomen of op de groene pijlen voor aangrenzende kaarten.


METAR-TAF: